Time;durP1;ratioP1;P1;durP2;ratioP2;P2;SDS_P1;SDS_P2;PMS_P1;PMS_P2;Temp;Humidity;BMP_temperature;BMP_pressure;BME280_temperature;BME280_humidity;BME280_pressure;Samples;Min_cycle;Max_cycle;Signal;HPM_P1;HPM_P2
2022/12/25 00:01:44;;;;;;;11.63;7.33;;;;;;;7.88;100.00;96887.03;4975211;28;20187;-75
2022/12/25 00:04:09;;;;;;;9.90;6.93;;;;;;;8.03;100.00;96871.09;4972961;28;20192;-75
2022/12/25 00:06:35;;;;;;;8.20;7.40;;;;;;;8.02;100.00;96873.94;4974894;28;20219;-75
2022/12/25 00:09:00;;;;;;;8.83;8.03;;;;;;;8.06;100.00;96875.09;4974786;28;20201;-75
2022/12/25 00:11:26;;;;;;;9.27;8.13;;;;;;;8.18;100.00;96873.44;4975224;28;20193;-75
2022/12/25 00:13:51;;;;;;;8.33;7.73;;;;;;;8.10;100.00;96877.09;4974947;28;20267;-75
2022/12/25 00:16:20;;;;;;;8.97;8.27;;;;;;;8.04;100.00;96875.31;4975033;28;20321;-75
2022/12/25 00:18:46;;;;;;;9.10;8.17;;;;;;;8.02;100.00;96881.75;4974214;28;20746;-75
2022/12/25 00:21:12;;;;;;;10.07;9.23;;;;;;;7.98;100.00;96883.97;4958477;28;20216;-75
2022/12/25 00:23:38;;;;;;;10.77;9.87;;;;;;;8.06;100.00;96888.16;4975020;28;20189;-75
2022/12/25 00:26:10;;;;;;;10.30;9.33;;;;;;;8.06;100.00;96883.72;4974803;28;20288;-75
2022/12/25 00:28:35;;;;;;;10.43;9.43;;;;;;;7.94;100.00;96875.75;4974347;28;20195;-75
2022/12/25 00:31:10;;;;;;;10.97;9.97;;;;;;;7.95;100.00;96876.56;4974077;28;20192;-75
2022/12/25 00:33:39;;;;;;;10.03;9.13;;;;;;;7.96;100.00;96874.75;4974748;28;20235;-75
2022/12/25 00:36:06;;;;;;;8.90;8.10;;;;;;;8.08;100.00;96868.66;4957089;28;20188;-76
2022/12/25 00:38:32;;;;;;;10.20;9.40;;;;;;;8.18;100.00;96860.38;4973981;28;20212;-75
2022/12/25 00:40:58;;;;;;;10.87;9.37;;;;;;;7.99;100.00;96856.84;4974657;28;20197;-75
2022/12/25 00:43:23;;;;;;;11.63;8.43;;;;;;;8.10;100.00;96864.03;4974744;28;20674;-75
2022/12/25 00:46:00;;;;;;;9.47;8.77;;;;;;;7.94;100.00;96873.16;4974422;28;20664;-75
2022/12/25 00:48:26;;;;;;;10.20;9.23;;;;;;;8.12;100.00;96871.66;4974280;28;20176;-75
2022/12/25 00:50:56;;;;;;;10.57;9.57;;;;;;;8.12;100.00;96876.88;4974779;28;20196;-76
2022/12/25 00:53:23;;;;;;;11.73;10.73;;;;;;;8.02;100.00;96876.53;4974344;28;20188;-75
2022/12/25 00:56:00;;;;;;;10.83;9.73;;;;;;;8.01;100.00;96874.94;4974198;28;20225;-75
2022/12/25 00:58:28;;;;;;;11.47;10.03;;;;;;;7.99;100.00;96884.75;4974404;28;20230;-75
2022/12/25 01:00:55;;;;;;;10.93;9.80;;;;;;;7.98;100.00;96896.22;4974177;28;20185;-76
2022/12/25 01:03:21;;;;;;;12.23;10.40;;;;;;;8.09;100.00;96883.31;4972361;28;20695;-75
2022/12/25 01:06:04;;;;;;;11.33;10.07;;;;;;;8.06;100.00;96878.50;4974160;28;20184;-75
2022/12/25 01:08:32;;;;;;;12.43;10.40;;;;;;;8.23;100.00;96871.00;4974573;28;20177;-76
2022/12/25 01:11:04;;;;;;;11.80;10.00;;;;;;;8.10;100.00;96873.66;4973885;28;20250;-76
2022/12/25 01:13:31;;;;;;;11.40;10.20;;;;;;;8.08;100.00;96875.72;4957155;28;20580;-76
2022/12/25 01:15:56;;;;;;;10.80;9.77;;;;;;;7.94;100.00;96869.72;4974090;28;20643;-76
2022/12/25 01:18:23;;;;;;;11.93;10.77;;;;;;;8.12;100.00;96871.66;4974292;28;20208;-76
2022/12/25 01:20:48;;;;;;;11.10;10.20;;;;;;;8.02;100.00;96873.94;4974504;28;20519;-76
2022/12/25 01:23:14;;;;;;;11.23;10.23;;;;;;;7.98;100.00;96872.72;4974070;28;20240;-76
2022/12/25 01:25:39;;;;;;;11.67;10.47;;;;;;;8.14;100.00;96885.28;4974202;28;20216;-76
2022/12/25 01:28:05;;;;;;;11.30;10.20;;;;;;;8.09;100.00;96882.50;4957092;28;20602;-76
2022/12/25 01:30:31;;;;;;;11.53;10.43;;;;;;;8.03;100.00;96886.75;4956599;28;20681;-76
2022/12/25 01:32:57;;;;;;;10.73;9.37;;;;;;;8.03;100.00;96876.31;4974550;28;20660;-76
2022/12/25 01:35:22;;;;;;;10.50;9.53;;;;;;;7.97;100.00;96894.63;4974372;28;20185;-76
2022/12/25 01:37:49;;;;;;;11.00;10.13;;;;;;;7.93;100.00;96899.44;4973600;28;20291;-76
2022/12/25 01:40:15;;;;;;;13.23;11.73;;;;;;;8.01;100.00;96901.03;4974077;28;20682;-75
2022/12/25 01:42:40;;;;;;;13.40;11.80;;;;;;;8.28;100.00;96905.91;4974190;28;20224;-75
2022/12/25 01:45:24;;;;;;;13.17;12.27;;;;;;;8.25;100.00;96906.31;4974046;28;20195;-75
2022/12/25 01:47:50;;;;;;;10.63;9.83;;;;;;;8.00;100.00;96913.28;4973980;28;20188;-75
2022/12/25 01:50:16;;;;;;;12.57;11.20;;;;;;;7.84;100.00;96914.53;4973704;28;20264;-75
2022/12/25 01:52:41;;;;;;;11.97;10.67;;;;;;;8.04;100.00;96917.06;4973670;28;20556;-75
2022/12/25 01:55:08;;;;;;;11.47;10.30;;;;;;;7.70;100.00;96907.75;4973619;28;20248;-75
2022/12/25 01:57:36;;;;;;;13.33;12.07;;;;;;;7.64;100.00;96900.72;4973663;28;20184;-76
2022/12/25 02:00:04;;;;;;;12.47;11.57;;;;;;;7.81;100.00;96904.50;4973526;28;20223;-76
2022/12/25 02:02:30;;;;;;;14.53;13.03;;;;;;;7.92;100.00;96905.66;4971421;28;20213;-76
2022/12/25 02:05:14;;;;;;;13.30;12.20;;;;;;;7.84;100.00;96898.09;4973442;28;20607;-77
2022/12/25 02:07:41;;;;;;;13.30;12.10;;;;;;;7.93;100.00;96896.84;4960371;28;20560;-76
2022/12/25 02:10:09;;;;;;;12.43;11.33;;;;;;;7.94;100.00;96895.84;4973674;28;20199;-76
2022/12/25 02:12:34;;;;;;;12.10;10.90;;;;;;;7.83;100.00;96889.44;4956128;28;20670;-77
2022/12/25 02:15:21;;;;;;;13.30;10.47;;;;;;;7.75;100.00;96886.25;4973810;28;20177;-75
2022/12/25 02:17:59;;;;;;;10.60;9.53;;;;;;;7.82;100.00;96884.44;4976418;28;20184;-75
2022/12/25 02:20:37;;;;;;;11.00;10.03;;;;;;;7.77;100.00;96881.63;4977543;28;20547;-76
2022/12/25 02:23:02;;;;;;;10.23;8.00;;;;;;;7.75;100.00;96892.28;4976046;28;20187;-76
2022/12/25 02:25:47;;;;;;;10.37;8.30;;;;;;;7.76;100.00;96885.25;4977306;28;20189;-76
2022/12/25 02:28:36;;;;;;;8.57;7.67;;;;;;;7.72;100.00;96882.25;4977331;28;20201;-76
2022/12/25 02:31:11;;;;;;;8.63;7.80;;;;;;;7.79;100.00;96874.41;4977018;28;21780;-76
2022/12/25 02:34:03;;;;;;;10.33;7.87;;;;;;;7.87;100.00;96868.94;4976905;28;20176;-75
2022/12/25 02:36:42;;;;;;;9.63;7.77;;;;;;;7.80;100.00;96871.59;4976262;28;20185;-75
2022/12/25 02:42:05;;;;;;;9.13;8.30;;;;;;;7.70;100.00;96878.25;4976594;28;20180;-75
2022/12/25 03:07:16;;;;;;;8.40;7.63;;;;;;;7.86;100.00;96873.38;4956309;29;20180;-76
2022/12/25 03:12:55;;;;;;;10.27;9.27;;;;;;;7.81;100.00;96862.75;4956704;29;20188;-77
2022/12/25 03:18:12;;;;;;;10.93;9.83;;;;;;;7.94;100.00;96861.91;4956485;29;20236;-75
2022/12/25 03:28:56;;;;;;;8.37;7.37;;;;;;;7.91;100.00;96847.44;4956011;28;20232;-75
2022/12/25 03:31:21;;;;;;;7.03;6.43;;;;;;;7.99;100.00;96850.84;4939482;29;20185;-75
2022/12/25 04:37:42;;;;;;;6.50;5.93;;;;;;;7.60;100.00;96810.88;4974214;28;20680;-75
2022/12/25 04:40:08;;;;;;;6.50;6.00;;;;;;;7.76;100.00;96818.22;4974081;28;20216;-77
2022/12/25 04:42:34;;;;;;;6.93;6.47;;;;;;;7.83;100.00;96813.78;4973343;28;20185;-76
2022/12/25 04:44:59;;;;;;;7.70;7.00;;;;;;;7.70;100.00;96813.84;4974658;28;20260;-76
2022/12/25 04:47:24;;;;;;;7.20;6.50;;;;;;;7.71;100.00;96810.22;4974680;28;20240;-75
2022/12/25 04:49:49;;;;;;;7.13;6.63;;;;;;;7.73;100.00;96810.81;4974415;28;20199;-76
2022/12/25 04:52:15;;;;;;;7.73;7.23;;;;;;;7.66;100.00;96820.47;4974171;28;20267;-75
2022/12/25 04:54:40;;;;;;;7.07;6.57;;;;;;;7.62;100.00;96814.09;4974304;28;20216;-75
2022/12/25 04:57:06;;;;;;;7.90;7.10;;;;;;;7.72;100.00;96813.63;4973756;28;20659;-76
2022/12/25 04:59:31;;;;;;;7.67;7.07;;;;;;;7.71;100.00;96812.03;4973408;28;20548;-76
2022/12/25 05:01:56;;;;;;;7.83;7.03;;;;;;;7.69;100.00;96806.22;4951415;28;20200;-77
2022/12/25 05:04:22;;;;;;;7.73;7.03;;;;;;;7.67;100.00;96806.44;4974179;28;20192;-76
2022/12/25 05:06:47;;;;;;;8.27;7.57;;;;;;;7.65;100.00;96799.81;4974470;28;20208;-76
2022/12/25 05:09:12;;;;;;;8.67;7.67;;;;;;;7.68;100.00;96802.03;4973581;28;20216;-75
2022/12/25 05:11:38;;;;;;;8.37;7.40;;;;;;;7.66;100.00;96791.78;4956748;28;20684;-76
2022/12/25 05:14:03;;;;;;;8.27;7.57;;;;;;;7.59;100.00;96790.19;4974043;28;20235;-76
2022/12/25 05:16:28;;;;;;;7.87;7.20;;;;;;;7.55;100.00;96791.63;4974298;28;20192;-76
2022/12/25 05:18:54;;;;;;;8.23;7.43;;;;;;;7.64;100.00;96788.56;4956867;28;20212;-75
2022/12/25 05:21:19;;;;;;;7.60;7.10;;;;;;;7.49;100.00;96788.03;4974008;28;20275;-75
2022/12/25 05:23:48;;;;;;;8.03;7.27;;;;;;;7.72;100.00;96783.13;4956831;28;20188;-76
2022/12/25 05:26:16;;;;;;;8.93;8.00;;;;;;;7.69;100.00;96791.34;4973863;28;20196;-76
2022/12/25 05:28:42;;;;;;;9.50;8.70;;;;;;;7.77;100.00;96791.13;4974212;28;20189;-75
2022/12/25 05:31:07;;;;;;;9.03;7.97;;;;;;;7.85;100.00;96790.91;4973694;28;20528;-76
2022/12/25 05:33:32;;;;;;;8.27;7.67;;;;;;;7.77;100.00;96785.91;4973730;28;20196;-75
2022/12/25 05:36:02;;;;;;;8.90;8.20;;;;;;;7.70;100.00;96774.69;4968799;28;20189;-76
2022/12/25 05:38:27;;;;;;;8.50;7.90;;;;;;;7.81;100.00;96779.25;4970303;28;20205;-76
2022/12/25 05:40:53;;;;;;;8.67;8.07;;;;;;;7.76;100.00;96783.50;4973604;28;20207;-77
2022/12/25 05:43:18;;;;;;;10.13;8.23;;;;;;;7.80;100.00;96788.09;4974120;28;20547;-76
2022/12/25 05:45:44;;;;;;;9.80;8.97;;;;;;;7.89;100.00;96784.25;4973372;28;20267;-77
2022/12/25 05:48:09;;;;;;;16.90;10.97;;;;;;;7.96;100.00;96776.38;4973890;28;20244;-77
2022/12/25 05:50:36;;;;;;;17.40;12.90;;;;;;;7.85;100.00;96770.03;4974968;28;20189;-77
2022/12/25 05:53:03;;;;;;;12.00;10.63;;;;;;;7.76;100.00;96767.84;4977486;28;20200;-76
2022/12/25 05:55:29;;;;;;;10.60;9.57;;;;;;;7.75;100.00;96763.63;4960282;28;20224;-76
2022/12/25 05:57:54;;;;;;;9.90;9.00;;;;;;;7.85;100.00;96748.34;4977189;28;20655;-76
2022/12/25 06:00:19;;;;;;;9.23;8.33;;;;;;;7.75;100.00;96759.22;4976145;28;20176;-76
2022/12/25 06:02:45;;;;;;;9.53;8.73;;;;;;;7.76;100.00;96762.63;4977000;28;20227;-76
2022/12/25 06:05:10;;;;;;;8.73;8.13;;;;;;;7.75;100.00;96761.84;4977967;28;20180;-76
2022/12/25 06:07:35;;;;;;;9.40;8.60;;;;;;;7.85;100.00;96750.97;4977618;28;20187;-76
2022/12/25 06:10:01;;;;;;;9.07;8.37;;;;;;;7.83;100.00;96742.53;4977605;28;20200;-76
2022/12/25 06:12:26;;;;;;;8.87;8.27;;;;;;;7.83;100.00;96745.13;4977835;28;20196;-76
2022/12/25 06:14:51;;;;;;;9.00;8.30;;;;;;;7.97;100.00;96751.09;4977455;28;20184;-78
2022/12/25 06:17:17;;;;;;;8.87;8.17;;;;;;;7.85;100.00;96743.94;4960325;28;20180;-77
2022/12/25 06:19:42;;;;;;;8.80;8.13;;;;;;;7.85;100.00;96750.97;4977695;28;20547;-76
2022/12/25 06:22:07;;;;;;;8.70;8.00;;;;;;;7.97;100.00;96745.88;4977193;28;20219;-76
2022/12/25 06:24:33;;;;;;;8.67;8.07;;;;;;;7.93;100.00;96738.44;4977538;28;20199;-76
2022/12/25 06:26:58;;;;;;;8.87;8.27;;;;;;;7.83;100.00;96734.72;4977534;28;20215;-76
2022/12/25 06:29:23;;;;;;;7.87;7.30;;;;;;;7.98;100.00;96742.22;4960035;28;20233;-76
2022/12/25 06:31:49;;;;;;;8.23;7.63;;;;;;;7.78;100.00;96740.56;4977179;28;20184;-76
2022/12/25 06:34:15;;;;;;;8.53;8.00;;;;;;;7.79;100.00;96736.13;4977045;28;20185;-76
2022/12/25 06:36:41;;;;;;;9.40;8.70;;;;;;;7.88;100.00;96737.47;4976972;28;20188;-76
2022/12/25 06:39:06;;;;;;;10.67;9.83;;;;;;;7.83;100.00;96730.28;4977384;28;20577;-76
2022/12/25 06:41:32;;;;;;;9.67;8.97;;;;;;;7.92;100.00;96736.03;4977291;28;20176;-76
2022/12/25 06:43:59;;;;;;;8.87;8.07;;;;;;;7.84;100.00;96734.50;4976679;28;20236;-76
2022/12/25 06:46:27;;;;;;;7.87;7.07;;;;;;;8.09;100.00;96733.72;4977129;28;20188;-75
2022/12/25 06:48:52;;;;;;;6.97;6.20;;;;;;;8.04;100.00;96736.16;4976801;28;20271;-77
2022/12/25 06:51:23;;;;;;;7.80;7.20;;;;;;;8.01;100.00;96734.78;4977219;28;20631;-76
2022/12/25 06:53:50;;;;;;;7.70;7.20;;;;;;;8.01;100.00;96742.63;4974058;28;20189;-76
2022/12/25 06:56:18;;;;;;;6.37;5.97;;;;;;;8.13;100.00;96737.53;4956854;29;20546;-75
2022/12/25 06:58:45;;;;;;;5.87;5.57;;;;;;;8.09;100.00;96749.38;4957218;29;20203;-76
2022/12/25 07:01:15;;;;;;;6.77;6.27;;;;;;;8.07;100.00;96752.22;4956520;29;20193;-75
2022/12/25 07:03:44;;;;;;;7.03;6.63;;;;;;;8.04;100.00;96750.03;4956716;28;20651;-76
2022/12/25 07:06:09;;;;;;;7.83;7.33;;;;;;;8.02;100.00;96744.22;4957238;29;20181;-76
2022/12/25 07:08:35;;;;;;;5.87;5.57;;;;;;;8.08;100.00;96743.34;4957385;29;20191;-76
2022/12/25 07:11:00;;;;;;;6.00;5.60;;;;;;;8.22;100.00;96741.47;4957335;29;20204;-76
2022/12/25 07:13:25;;;;;;;7.00;6.53;;;;;;;8.13;100.00;96743.56;4956339;29;20193;-76
2022/12/25 07:16:00;;;;;;;9.40;8.90;;;;;;;8.17;100.00;96757.78;4956739;29;20283;-75
2022/12/25 07:18:26;;;;;;;9.20;8.70;;;;;;;8.15;100.00;96754.56;4956917;29;20216;-75
2022/12/25 07:20:54;;;;;;;8.10;7.60;;;;;;;8.18;100.00;96761.19;4956146;29;20253;-77
2022/12/25 07:23:22;;;;;;;6.13;5.63;;;;;;;8.33;100.00;96756.47;4957175;29;20554;-75
2022/12/25 07:25:54;;;;;;;6.30;6.00;;;;;;;8.40;100.00;96757.22;4956681;29;20185;-76
2022/12/25 07:28:20;;;;;;;6.93;6.60;;;;;;;8.43;100.00;96750.75;4942429;29;20224;-75
2022/12/25 07:30:45;;;;;;;7.37;6.90;;;;;;;8.53;100.00;96756.31;4957247;29;20272;-75
2022/12/25 07:33:11;;;;;;;7.40;7.00;;;;;;;8.46;100.00;96745.94;4956898;29;20189;-75
2022/12/25 07:35:36;;;;;;;7.60;7.20;;;;;;;8.48;100.00;96741.28;4956296;29;20584;-76
2022/12/25 07:38:01;;;;;;;8.33;7.93;;;;;;;8.48;100.00;96741.28;4956847;29;20185;-75
2022/12/25 07:40:27;;;;;;;6.20;5.83;;;;;;;8.52;100.00;96742.47;4939620;29;20177;-76
2022/12/25 07:42:52;;;;;;;5.03;4.77;;;;;;;8.59;100.00;96735.34;4956420;29;20204;-77
2022/12/25 07:45:17;;;;;;;5.20;4.90;;;;;;;8.58;100.00;96725.91;4956883;29;20294;-75
2022/12/25 07:47:43;;;;;;;5.23;4.90;;;;;;;8.63;100.00;96723.47;4956550;29;20200;-76
2022/12/25 07:50:09;;;;;;;6.53;6.13;;;;;;;8.65;100.00;96718.00;4956838;29;20190;-75
2022/12/25 07:52:34;;;;;;;5.50;5.20;;;;;;;8.71;100.00;96717.16;4957504;29;20233;-75
2022/12/25 07:54:59;;;;;;;6.10;5.70;;;;;;;8.60;100.00;96707.41;4950479;28;20212;-76
2022/12/25 07:57:24;;;;;;;4.63;4.33;;;;;;;8.68;100.00;96701.94;4975439;28;20224;-75
2022/12/25 07:59:50;;;;;;;5.10;4.80;;;;;;;8.68;100.00;96701.94;4973838;28;20279;-73
2022/12/25 08:02:15;;;;;;;5.97;5.57;;;;;;;8.63;100.00;96696.56;4975609;28;20181;-74
2022/12/25 08:04:41;;;;;;;6.57;6.13;;;;;;;8.43;100.00;96703.75;4975571;28;20188;-74
2022/12/25 08:07:06;;;;;;;6.77;6.37;;;;;;;8.40;100.00;96693.75;4975585;28;20212;-72
2022/12/25 08:09:31;;;;;;;6.27;5.87;;;;;;;8.37;100.00;96702.00;4975470;28;20555;-73
2022/12/25 08:11:57;;;;;;;6.23;5.83;;;;;;;8.45;100.00;96705.16;4974984;28;20611;-73
2022/12/25 08:14:22;;;;;;;7.60;7.00;;;;;;;8.39;100.00;96707.81;4957369;28;20193;-73
2022/12/25 08:16:47;;;;;;;34.10;32.07;;;;;;;8.28;100.00;96712.69;4957926;28;20181;-74
2022/12/25 08:19:13;;;;;;;16.33;15.23;;;;;;;8.19;100.00;96724.41;4975094;28;20690;-74
2022/12/25 08:21:39;;;;;;;13.93;12.93;;;;;;;8.15;100.00;96728.47;4975321;28;20562;-72
2022/12/25 08:24:04;;;;;;;18.77;17.63;;;;;;;8.06;100.00;96732.34;4975321;28;20225;-73
2022/12/25 08:26:30;;;;;;;8.63;8.07;;;;;;;8.12;100.00;96728.09;4975224;28;20737;-73
2022/12/25 08:28:55;;;;;;;8.63;8.03;;;;;;;8.20;100.00;96725.19;4975091;28;20193;-75
2022/12/25 08:31:26;;;;;;;8.00;7.47;;;;;;;8.16;100.00;96734.47;4974897;28;20260;-74
2022/12/25 08:33:54;;;;;;;8.50;7.80;;;;;;;8.47;100.00;96736.28;4974810;28;20211;-73
2022/12/25 08:36:20;;;;;;;7.13;6.47;;;;;;;8.67;100.00;96739.50;4974215;28;20184;-74
2022/12/25 08:38:46;;;;;;;9.90;9.30;;;;;;;8.90;100.00;96744.91;4975115;28;20275;-74
2022/12/25 08:41:13;;;;;;;6.27;5.87;;;;;;;8.66;100.00;96748.34;4974883;28;20196;-74
2022/12/25 08:43:38;;;;;;;6.03;5.63;;;;;;;8.87;100.00;96753.19;4974672;28;20188;-74
2022/12/25 08:46:05;;;;;;;6.27;5.87;;;;;;;8.93;100.00;96754.94;4974999;28;20184;-75
2022/12/25 08:48:31;;;;;;;6.80;6.30;;;;;;;8.93;100.00;96746.28;4976840;28;20192;-74
2022/12/25 08:50:56;;;;;;;7.53;7.03;;;;;;;9.00;100.00;96744.41;4974860;28;20631;-74
2022/12/25 08:53:22;;;;;;;8.13;7.53;;;;;;;9.09;100.00;96741.28;4974971;28;20632;-73
2022/12/25 08:55:48;;;;;;;8.00;7.50;;;;;;;8.95;100.00;96739.03;4974512;28;20228;-74
2022/12/25 08:58:15;;;;;;;9.83;9.03;;;;;;;8.96;100.00;96744.06;4972090;28;20654;-74
2022/12/25 09:00:40;;;;;;;9.63;8.93;;;;;;;9.02;100.00;96737.16;4971661;28;20750;-74
2022/12/25 09:03:06;;;;;;;10.23;9.60;;;;;;;9.15;100.00;96721.31;4974472;28;20275;-76
2022/12/25 09:05:35;;;;;;;6.13;5.73;;;;;;;9.26;100.00;96717.94;4974421;28;20211;-72
2022/12/25 09:08:00;;;;;;;8.53;7.83;;;;;;;9.47;100.00;96704.41;4971444;28;20662;-75
2022/12/25 09:10:26;;;;;;;9.67;8.67;;;;;;;9.40;100.00;96690.63;4971751;28;20205;-73
2022/12/25 09:12:51;;;;;;;9.90;8.83;;;;;;;9.65;100.00;96684.44;4974427;28;20223;-75
2022/12/25 09:15:16;;;;;;;7.07;6.37;;;;;;;9.64;100.00;96678.41;4991937;28;20199;-73
2022/12/25 09:17:41;;;;;;;8.10;7.37;;;;;;;9.74;100.00;96673.47;4974924;28;20185;-76
2022/12/25 09:20:07;;;;;;;6.07;5.53;;;;;;;9.72;100.00;96675.50;4974546;28;20235;-73
2022/12/25 09:22:33;;;;;;;9.87;5.23;;;;;;;9.74;100.00;96678.69;4973849;28;20232;-73
2022/12/25 09:24:58;;;;;;;5.13;4.80;;;;;;;9.62;100.00;96690.16;4971084;28;20268;-73
2022/12/25 09:27:24;;;;;;;5.30;4.90;;;;;;;9.70;100.00;96689.81;4961927;28;20276;-74
2022/12/25 09:29:49;;;;;;;5.70;5.30;;;;;;;9.79;100.00;96693.72;4954765;29;20185;-74
2022/12/25 09:32:15;;;;;;;6.10;5.70;;;;;;;9.87;100.00;96696.81;4959011;28;20185;-74
2022/12/25 09:34:40;;;;;;;7.17;6.73;;;;;;;9.83;100.00;96698.28;4973381;28;20276;-73
2022/12/25 09:37:05;;;;;;;10.23;9.57;;;;;;;9.96;100.00;96697.31;4973231;28;20185;-74
2022/12/25 09:39:31;;;;;;;15.53;14.23;;;;;;;10.05;100.00;96698.56;4973502;28;20204;-73
2022/12/25 09:41:59;;;;;;;10.30;9.67;;;;;;;10.07;100.00;96700.97;4974209;28;20239;-74
2022/12/25 09:44:32;;;;;;;10.50;9.87;;;;;;;10.02;100.00;96699.03;4974029;28;20180;-74
2022/12/25 09:47:02;;;;;;;11.20;10.50;;;;;;;10.12;100.00;96707.13;4974093;28;20169;-73
2022/12/25 09:49:52;;;;;;;8.87;8.27;;;;;;;10.12;100.00;96709.75;4973997;28;20739;-74
2022/12/25 09:52:21;;;;;;;9.00;8.40;;;;;;;10.13;100.00;96711.34;4974065;28;20262;-75
2022/12/25 09:55:10;;;;;;;7.97;7.37;;;;;;;10.33;100.00;96706.59;4973916;28;20220;-74
2022/12/25 09:57:35;;;;;;;7.57;7.07;;;;;;;10.40;100.00;96709.13;4973559;28;20264;-74
2022/12/25 10:00:00;;;;;;;6.33;5.93;;;;;;;10.34;100.00;96705.59;4956246;28;20239;-74
2022/12/25 10:02:48;;;;;;;6.37;5.87;;;;;;;10.47;100.00;96715.06;4974374;28;20184;-74
2022/12/25 10:05:44;;;;;;;6.13;5.73;;;;;;;10.59;100.00;96717.69;4974381;28;20583;-76
2022/12/25 10:08:34;;;;;;;5.90;5.50;;;;;;;10.72;100.00;96709.56;4956227;28;20543;-75
2022/12/25 10:11:24;;;;;;;6.50;6.10;;;;;;;10.62;100.00;96711.97;4954934;29;20200;-74
2022/12/25 10:14:08;;;;;;;5.50;5.20;;;;;;;10.67;100.00;96699.78;4964935;28;20702;-75
2022/12/25 10:16:40;;;;;;;5.40;5.00;;;;;;;10.79;100.00;96695.31;4974100;28;20188;-75
2022/12/25 10:19:26;;;;;;;4.90;4.53;;;;;;;10.82;100.00;96700.09;4973621;28;20192;-75
2022/12/25 10:21:59;;;;;;;4.73;4.43;;;;;;;10.94;100.00;96697.47;4973670;28;20184;-75
2022/12/25 10:24:36;;;;;;;5.33;4.87;;;;;;;11.00;100.00;96691.31;4974078;28;20223;-75
2022/12/25 10:27:10;;;;;;;4.50;4.20;;;;;;;11.02;100.00;96689.25;4973785;28;20192;-74
2022/12/25 10:29:37;;;;;;;4.47;4.27;;;;;;;11.10;100.00;96691.50;4973642;28;20179;-74
2022/12/25 10:32:03;;;;;;;5.03;4.63;;;;;;;11.09;100.00;96683.88;4973334;28;20184;-75
2022/12/25 10:34:28;;;;;;;4.70;4.40;;;;;;;11.23;100.00;96680.75;4972634;28;20232;-75
2022/12/25 10:36:54;;;;;;;5.33;4.90;;;;;;;11.21;100.00;96677.56;4973469;28;20180;-75
2022/12/25 10:39:22;;;;;;;5.30;4.90;;;;;;;11.33;100.00;96667.03;4967235;28;20545;-74
2022/12/25 10:42:02;;;;;;;5.17;4.67;;;;;;;11.42;100.00;96665.66;4957933;29;20278;-75
2022/12/25 10:44:27;;;;;;;4.67;4.30;;;;;;;11.50;100.00;96657.38;4958129;29;20181;-76
2022/12/25 10:46:58;;;;;;;7.97;7.27;;;;;;;11.74;100.00;96649.41;4957460;29;20185;-75
2022/12/25 10:49:29;;;;;;;7.27;6.60;;;;;;;11.82;100.00;96643.75;4958350;29;20174;-74
2022/12/25 10:51:54;;;;;;;5.10;4.70;;;;;;;11.93;100.00;96641.06;4971192;28;20191;-74
2022/12/25 10:54:25;;;;;;;4.87;4.43;;;;;;;11.87;100.00;96634.13;4959499;28;20735;-73
2022/12/25 10:56:59;;;;;;;5.17;4.87;;;;;;;11.84;100.00;96631.19;4976555;28;20197;-74
2022/12/25 10:59:27;;;;;;;5.87;5.57;;;;;;;11.77;100.00;96636.59;4975140;28;20214;-73
2022/12/25 11:01:54;;;;;;;7.17;6.73;;;;;;;11.83;100.00;96630.41;4976719;28;20263;-73
2022/12/25 11:04:24;;;;;;;7.37;6.87;;;;;;;11.88;100.00;96627.06;4976352;28;20191;-73
2022/12/25 11:06:57;;;;;;;7.87;7.47;;;;;;;11.80;100.00;96628.28;4976471;28;20184;-73
2022/12/25 11:09:22;;;;;;;9.57;8.97;;;;;;;11.62;100.00;96624.00;4976894;28;20651;-73
2022/12/25 11:11:47;;;;;;;5.93;4.43;;;;;;;11.77;100.00;96625.31;4977454;28;20227;-73
2022/12/25 11:14:19;;;;;;;4.33;4.03;;;;;;;11.68;100.00;96620.44;4959225;28;20181;-73
2022/12/25 11:16:45;;;;;;;4.10;3.60;;;;;;;11.72;100.00;96614.69;4959142;28;20189;-73
2022/12/25 11:19:31;;;;;;;4.83;4.40;;;;;;;11.76;100.00;96621.09;4976141;28;20544;-73
2022/12/25 11:22:01;;;;;;;4.57;4.27;;;;;;;11.80;100.00;96616.97;4975448;28;20173;-74
2022/12/25 11:24:29;;;;;;;5.37;5.07;;;;;;;11.88;100.00;96606.84;4976562;28;20199;-72
2022/12/25 11:27:00;;;;;;;4.47;4.27;;;;;;;11.80;100.00;96619.59;4976092;28;20185;-73
2022/12/25 11:29:45;;;;;;;7.63;7.23;;;;;;;11.76;100.00;96618.47;4976167;28;20182;-73
2022/12/25 11:32:18;;;;;;;10.83;10.23;;;;;;;11.88;100.00;96606.06;4976074;28;20663;-73
2022/12/25 11:34:46;;;;;;;10.57;10.03;;;;;;;12.02;100.00;96599.47;4958934;28;20220;-73
2022/12/25 11:37:50;;;;;;;11.93;11.00;;;;;;;12.11;100.00;96599.84;4976443;28;20701;-73
2022/12/25 11:40:21;;;;;;;11.53;10.93;;;;;;;12.03;100.00;96598.44;4965589;28;20287;-73
2022/12/25 11:43:10;;;;;;;11.40;10.80;;;;;;;12.18;100.00;96589.97;4956796;29;20217;-73
2022/12/25 11:45:39;;;;;;;9.87;9.27;;;;;;;12.33;100.00;96595.44;4956452;29;20229;-73
2022/12/25 11:48:23;;;;;;;10.13;9.53;;;;;;;12.41;100.00;96593.19;4938973;28;20291;-73
2022/12/25 11:50:54;;;;;;;8.23;7.67;;;;;;;12.51;100.00;96582.00;4956209;29;20538;-73
2022/12/25 11:53:33;;;;;;;6.43;6.03;;;;;;;12.61;100.00;96582.13;4956708;29;20169;-73
2022/12/25 11:56:05;;;;;;;10.03;9.47;;;;;;;12.71;100.00;96584.09;4956165;29;20193;-74
2022/12/25 11:58:47;;;;;;;14.97;14.17;;;;;;;12.82;100.00;96575.28;4965407;28;20325;-73
2022/12/25 12:01:49;;;;;;;15.00;14.10;;;;;;;12.75;100.00;96577.31;4975469;28;20176;-73
2022/12/25 12:04:22;;;;;;;9.77;9.27;;;;;;;12.78;100.00;96571.56;4975773;28;20176;-73
2022/12/25 12:07:01;;;;;;;28.80;27.23;;;;;;;12.88;100.00;96567.19;4975485;28;20217;-73
2022/12/25 12:09:32;;;;;;;30.10;28.50;;;;;;;12.99;100.00;96552.31;4975789;28;20501;-72
2022/12/25 12:12:15;;;;;;;37.60;35.43;;;;;;;13.04;100.00;96544.47;4975312;28;20176;-73
2022/12/25 12:15:01;;;;;;;46.30;43.70;;;;;;;13.07;100.00;96536.09;4975819;28;20172;-73
2022/12/25 12:17:26;;;;;;;39.87;37.60;;;;;;;13.01;100.00;96529.19;4974965;28;20184;-74
2022/12/25 12:19:52;;;;;;;44.33;41.83;;;;;;;13.01;100.00;96533.66;4975164;28;20212;-74
2022/12/25 12:22:25;;;;;;;43.13;40.80;;;;;;;13.06;100.00;96520.56;4974839;28;20177;-73
2022/12/25 12:25:05;;;;;;;18.63;17.43;;;;;;;12.87;100.00;96522.75;4974903;28;20652;-74
2022/12/25 12:27:37;;;;;;;12.23;11.47;;;;;;;12.91;100.00;96511.47;4975044;28;20644;-74
2022/12/25 12:30:06;;;;;;;8.37;7.87;;;;;;;12.93;100.00;96519.91;4975054;28;20203;-74
2022/12/25 12:32:37;;;;;;;7.67;6.87;;;;;;;13.10;100.00;96513.75;4975112;28;20707;-74
2022/12/25 12:35:12;;;;;;;7.73;7.13;;;;;;;12.88;100.00;96511.16;4974169;28;20231;-73
2022/12/25 12:37:39;;;;;;;8.30;7.60;;;;;;;12.77;100.00;96512.91;4974840;28;20175;-73
2022/12/25 12:40:20;;;;;;;8.90;8.17;;;;;;;12.71;100.00;96518.34;4974088;28;20192;-75
2022/12/25 12:42:49;;;;;;;17.50;16.40;;;;;;;12.79;100.00;96517.91;4956154;29;20256;-73
2022/12/25 12:45:22;;;;;;;19.37;18.23;;;;;;;12.76;100.00;96523.69;4955797;29;20173;-73
2022/12/25 12:47:49;;;;;;;19.43;18.33;;;;;;;12.77;100.00;96512.91;4955724;29;20170;-73
2022/12/25 12:50:29;;;;;;;17.43;16.27;;;;;;;12.93;100.00;96521.75;4956432;29;20181;-73
2022/12/25 12:52:55;;;;;;;10.27;9.63;;;;;;;13.14;100.00;96528.84;4971112;28;20216;-74
2022/12/25 12:55:29;;;;;;;5.93;5.53;;;;;;;13.24;100.00;96518.41;4974776;28;20335;-73
2022/12/25 12:58:00;;;;;;;7.03;6.43;;;;;;;13.35;100.00;96521.94;4954726;28;20727;-73
2022/12/25 13:00:35;;;;;;;9.70;9.03;;;;;;;13.32;100.00;96523.19;4973941;28;20343;-73
2022/12/25 13:03:38;;;;;;;22.23;20.97;;;;;;;13.37;100.00;96524.31;4974404;28;20192;-74
2022/12/25 13:06:32;;;;;;;11.60;10.73;;;;;;;13.38;100.00;96525.88;4974640;28;20216;-75
2022/12/25 13:09:28;;;;;;;10.43;9.73;;;;;;;13.39;100.00;96520.38;4974746;28;20176;-74
2022/12/25 13:11:53;;;;;;;10.47;9.77;;;;;;;13.43;100.00;96520.69;4974424;28;20172;-74
2022/12/25 13:14:21;;;;;;;11.23;10.53;;;;;;;13.39;100.00;96514.31;4974896;28;20180;-74
2022/12/25 13:16:48;;;;;;;12.63;12.03;;;;;;;13.34;100.00;96501.91;4974515;28;20232;-75
2022/12/25 13:19:21;;;;;;;14.93;14.17;;;;;;;13.30;100.00;96501.63;4974338;28;20616;-73
2022/12/25 13:21:57;;;;;;;36.83;34.80;;;;;;;13.37;100.00;96500.63;4973571;28;20187;-75